Upstream stations:
Downstream station:
SHEF ID: WANO2 Cimarron River near Waynoka, OK
STATION TYPE:
Regulating: Stage = 9.00, Flow = 4005
PRECIP STAGE RIV-FLOW BAT-LOAD
in ft cfs volt
Ccp-Rev Ccp-Rev Ccp-Rev Ccp-Rev
(US/Central)
01/31 00:00 0.00 5.63 32 12.73
01/31 01:00 0.00 5.63 32 12.73
01/31 02:00 0.00 5.63 32 12.65
01/31 03:00 0.00 5.63 32 12.65
01/31 04:00 0.00 5.63 32 12.65
01/31 05:00 0.00 5.63 32 12.65
01/31 06:00 0.00 5.64 34 12.57
01/31 07:00 0.00 5.65 36 12.57
01/31 08:00 0.00 5.65 36 12.57
01/31 09:00 0.00 5.65 36 12.65
01/31 10:00 0.00 5.64 34 13.37
01/31 11:00 0.00 5.65 36 14.00
01/31 12:00 0.00 5.65 36 13.84
01/31 13:00 0.00 5.64 34 13.68
01/31 14:00 0.00 5.64 34 13.60
01/31 15:00 0.00 5.60 28 13.60
01/31 16:00 0.00 5.62 31 13.53
01/31 17:00 0.00 5.61 29 13.53
01/31 18:00 0.00 5.62 31 13.37
01/31 19:00 0.00 5.63 32 13.05
01/31 20:00 0.00 5.61 29 12.89
01/31 21:00 0.00 5.61 29 12.81
01/31 22:00 0.00 5.64 34 12.81
01/31 23:00 0.00 5.64 34 12.81